sensor_id;sensor_type;location;lat;lon;timestamp;P1;durP1;ratioP1;P2;durP2;ratioP2
22973;SDS011;11653;50.848;4.584;2023-12-07T00:01:26;87.63;;;24.40;;
22973;SDS011;11653;50.848;4.584;2023-12-07T00:03:51;86.33;;;22.27;;
22973;SDS011;11653;50.848;4.584;2023-12-07T00:06:17;83.60;;;22.57;;
22973;SDS011;11653;50.848;4.584;2023-12-07T00:08:43;97.40;;;21.80;;
22973;SDS011;11653;50.848;4.584;2023-12-07T00:11:08;81.63;;;22.00;;
22973;SDS011;11653;50.848;4.584;2023-12-07T00:13:34;88.47;;;23.63;;
22973;SDS011;11653;50.848;4.584;2023-12-07T00:16:00;87.10;;;23.80;;
22973;SDS011;11653;50.848;4.584;2023-12-07T00:18:25;96.53;;;25.10;;
22973;SDS011;11653;50.848;4.584;2023-12-07T00:20:51;71.87;;;22.90;;
22973;SDS011;11653;50.848;4.584;2023-12-07T00:23:16;85.70;;;23.37;;
22973;SDS011;11653;50.848;4.584;2023-12-07T00:25:42;73.93;;;22.53;;
22973;SDS011;11653;50.848;4.584;2023-12-07T00:28:08;77.23;;;21.93;;
22973;SDS011;11653;50.848;4.584;2023-12-07T00:30:33;70.10;;;21.77;;
22973;SDS011;11653;50.848;4.584;2023-12-07T00:32:59;66.70;;;22.13;;
22973;SDS011;11653;50.848;4.584;2023-12-07T00:35:25;66.90;;;21.30;;
22973;SDS011;11653;50.848;4.584;2023-12-07T00:37:54;69.10;;;21.43;;
22973;SDS011;11653;50.848;4.584;2023-12-07T00:40:23;56.83;;;20.80;;
22973;SDS011;11653;50.848;4.584;2023-12-07T00:42:49;71.53;;;22.13;;
22973;SDS011;11653;50.848;4.584;2023-12-07T00:45:15;72.03;;;21.40;;
22973;SDS011;11653;50.848;4.584;2023-12-07T00:47:41;67.40;;;22.10;;
22973;SDS011;11653;50.848;4.584;2023-12-07T00:50:07;71.47;;;20.73;;
22973;SDS011;11653;50.848;4.584;2023-12-07T00:52:33;72.10;;;22.90;;
22973;SDS011;11653;50.848;4.584;2023-12-07T00:54:58;71.20;;;21.83;;
22973;SDS011;11653;50.848;4.584;2023-12-07T00:57:24;70.47;;;22.43;;
22973;SDS011;11653;50.848;4.584;2023-12-07T00:59:50;68.17;;;21.10;;
22973;SDS011;11653;50.848;4.584;2023-12-07T01:02:16;64.30;;;21.67;;
22973;SDS011;11653;50.848;4.584;2023-12-07T01:04:41;63.73;;;19.87;;
22973;SDS011;11653;50.848;4.584;2023-12-07T01:07:07;65.97;;;21.10;;
22973;SDS011;11653;50.848;4.584;2023-12-07T01:09:33;60.67;;;20.53;;
22973;SDS011;11653;50.848;4.584;2023-12-07T01:11:58;64.30;;;21.40;;
22973;SDS011;11653;50.848;4.584;2023-12-07T01:14:24;64.40;;;20.97;;
22973;SDS011;11653;50.848;4.584;2023-12-07T01:16:50;69.20;;;21.17;;
22973;SDS011;11653;50.848;4.584;2023-12-07T01:19:15;63.87;;;22.13;;
22973;SDS011;11653;50.848;4.584;2023-12-07T01:21:41;76.90;;;22.47;;
22973;SDS011;11653;50.848;4.584;2023-12-07T01:24:07;66.57;;;22.97;;
22973;SDS011;11653;50.848;4.584;2023-12-07T01:26:33;62.93;;;21.33;;
22973;SDS011;11653;50.848;4.584;2023-12-07T01:28:59;65.20;;;21.27;;
22973;SDS011;11653;50.848;4.584;2023-12-07T01:31:25;54.53;;;22.47;;
22973;SDS011;11653;50.848;4.584;2023-12-07T01:33:51;66.47;;;21.70;;
22973;SDS011;11653;50.848;4.584;2023-12-07T01:36:16;62.83;;;21.63;;
22973;SDS011;11653;50.848;4.584;2023-12-07T01:38:42;60.67;;;21.87;;
22973;SDS011;11653;50.848;4.584;2023-12-07T01:41:08;62.10;;;20.83;;
22973;SDS011;11653;50.848;4.584;2023-12-07T01:43:34;61.80;;;22.10;;
22973;SDS011;11653;50.848;4.584;2023-12-07T01:46:00;54.73;;;20.27;;
22973;SDS011;11653;50.848;4.584;2023-12-07T01:48:27;57.00;;;19.57;;
22973;SDS011;11653;50.848;4.584;2023-12-07T01:50:53;60.63;;;22.30;;
22973;SDS011;11653;50.848;4.584;2023-12-07T01:53:21;62.70;;;23.07;;
22973;SDS011;11653;50.848;4.584;2023-12-07T01:55:48;64.80;;;23.97;;
22973;SDS011;11653;50.848;4.584;2023-12-07T01:58:15;60.40;;;22.73;;
22973;SDS011;11653;50.848;4.584;2023-12-07T02:00:43;61.37;;;23.20;;
22973;SDS011;11653;50.848;4.584;2023-12-07T02:03:09;61.73;;;25.10;;
22973;SDS011;11653;50.848;4.584;2023-12-07T02:05:36;69.03;;;24.67;;
22973;SDS011;11653;50.848;4.584;2023-12-07T02:08:02;68.63;;;25.00;;
22973;SDS011;11653;50.848;4.584;2023-12-07T02:10:29;64.40;;;24.93;;
22973;SDS011;11653;50.848;4.584;2023-12-07T02:12:55;69.40;;;26.03;;
22973;SDS011;11653;50.848;4.584;2023-12-07T02:15:21;70.63;;;27.03;;
22973;SDS011;11653;50.848;4.584;2023-12-07T02:20:37;67.00;;;25.93;;
22973;SDS011;11653;50.848;4.584;2023-12-07T02:23:10;73.80;;;27.70;;
22973;SDS011;11653;50.848;4.584;2023-12-07T02:25:51;67.13;;;25.30;;
22973;SDS011;11653;50.848;4.584;2023-12-07T02:28:18;68.83;;;27.80;;
22973;SDS011;11653;50.848;4.584;2023-12-07T02:30:44;66.50;;;24.23;;
22973;SDS011;11653;50.848;4.584;2023-12-07T02:33:10;59.50;;;25.37;;
22973;SDS011;11653;50.848;4.584;2023-12-07T02:35:36;61.87;;;24.63;;
22973;SDS011;11653;50.848;4.584;2023-12-07T02:38:03;60.13;;;24.20;;
22973;SDS011;11653;50.848;4.584;2023-12-07T02:40:30;52.77;;;22.10;;
22973;SDS011;11653;50.848;4.584;2023-12-07T02:42:57;57.53;;;24.63;;
22973;SDS011;11653;50.848;4.584;2023-12-07T02:45:24;50.07;;;21.53;;
22973;SDS011;11653;50.848;4.584;2023-12-07T02:47:51;52.10;;;23.47;;
22973;SDS011;11653;50.848;4.584;2023-12-07T02:50:17;52.87;;;22.53;;
22973;SDS011;11653;50.848;4.584;2023-12-07T02:52:42;50.20;;;21.83;;
22973;SDS011;11653;50.848;4.584;2023-12-07T02:55:08;46.90;;;21.80;;
22973;SDS011;11653;50.848;4.584;2023-12-07T02:57:34;45.17;;;19.73;;
22973;SDS011;11653;50.848;4.584;2023-12-07T03:00:00;45.10;;;20.20;;
22973;SDS011;11653;50.848;4.584;2023-12-07T03:02:26;47.27;;;21.33;;
22973;SDS011;11653;50.848;4.584;2023-12-07T03:04:52;50.00;;;20.40;;
22973;SDS011;11653;50.848;4.584;2023-12-07T03:07:17;46.47;;;20.53;;
22973;SDS011;11653;50.848;4.584;2023-12-07T03:09:43;39.07;;;19.00;;
22973;SDS011;11653;50.848;4.584;2023-12-07T03:12:09;38.13;;;17.73;;
22973;SDS011;11653;50.848;4.584;2023-12-07T03:14:34;37.87;;;18.40;;
22973;SDS011;11653;50.848;4.584;2023-12-07T03:17:00;38.77;;;18.90;;
22973;SDS011;11653;50.848;4.584;2023-12-07T03:19:26;42.73;;;18.17;;
22973;SDS011;11653;50.848;4.584;2023-12-07T03:21:51;46.00;;;19.30;;
22973;SDS011;11653;50.848;4.584;2023-12-07T03:24:17;39.23;;;17.60;;
22973;SDS011;11653;50.848;4.584;2023-12-07T03:26:43;37.73;;;17.33;;
22973;SDS011;11653;50.848;4.584;2023-12-07T03:29:08;36.77;;;17.83;;
22973;SDS011;11653;50.848;4.584;2023-12-07T03:31:35;39.47;;;17.47;;
22973;SDS011;11653;50.848;4.584;2023-12-07T03:34:01;39.43;;;18.77;;
22973;SDS011;11653;50.848;4.584;2023-12-07T03:36:27;38.17;;;17.73;;
22973;SDS011;11653;50.848;4.584;2023-12-07T03:38:53;39.13;;;19.27;;
22973;SDS011;11653;50.848;4.584;2023-12-07T03:41:18;36.37;;;18.47;;
22973;SDS011;11653;50.848;4.584;2023-12-07T03:43:45;38.80;;;18.40;;
22973;SDS011;11653;50.848;4.584;2023-12-07T03:46:11;38.87;;;18.47;;
22973;SDS011;11653;50.848;4.584;2023-12-07T03:48:36;38.70;;;18.87;;
22973;SDS011;11653;50.848;4.584;2023-12-07T03:51:02;36.77;;;17.93;;
22973;SDS011;11653;50.848;4.584;2023-12-07T03:53:28;42.47;;;18.63;;
22973;SDS011;11653;50.848;4.584;2023-12-07T03:55:53;38.73;;;18.57;;
22973;SDS011;11653;50.848;4.584;2023-12-07T03:58:20;39.67;;;19.50;;
22973;SDS011;11653;50.848;4.584;2023-12-07T04:00:46;40.53;;;19.33;;
22973;SDS011;11653;50.848;4.584;2023-12-07T04:03:11;41.57;;;19.00;;
22973;SDS011;11653;50.848;4.584;2023-12-07T04:05:37;32.87;;;15.77;;
22973;SDS011;11653;50.848;4.584;2023-12-07T04:08:03;32.63;;;17.10;;
22973;SDS011;11653;50.848;4.584;2023-12-07T04:10:32;35.17;;;16.80;;
22973;SDS011;11653;50.848;4.584;2023-12-07T04:12:57;31.13;;;16.40;;
22973;SDS011;11653;50.848;4.584;2023-12-07T04:15:23;34.83;;;16.33;;
22973;SDS011;11653;50.848;4.584;2023-12-07T04:17:49;30.60;;;15.37;;
22973;SDS011;11653;50.848;4.584;2023-12-07T04:20:15;36.00;;;15.60;;
22973;SDS011;11653;50.848;4.584;2023-12-07T04:22:41;34.90;;;16.47;;
22973;SDS011;11653;50.848;4.584;2023-12-07T04:25:07;31.37;;;15.40;;
22973;SDS011;11653;50.848;4.584;2023-12-07T04:27:33;31.50;;;16.17;;
22973;SDS011;11653;50.848;4.584;2023-12-07T04:29:59;32.57;;;16.30;;
22973;SDS011;11653;50.848;4.584;2023-12-07T04:32:25;30.10;;;15.67;;
22973;SDS011;11653;50.848;4.584;2023-12-07T04:34:51;33.23;;;15.87;;
22973;SDS011;11653;50.848;4.584;2023-12-07T04:37:16;32.60;;;15.37;;
22973;SDS011;11653;50.848;4.584;2023-12-07T04:39:42;31.13;;;15.83;;
22973;SDS011;11653;50.848;4.584;2023-12-07T04:42:08;28.17;;;13.47;;
22973;SDS011;11653;50.848;4.584;2023-12-07T04:44:34;29.57;;;13.77;;
22973;SDS011;11653;50.848;4.584;2023-12-07T04:46:59;32.73;;;16.10;;
22973;SDS011;11653;50.848;4.584;2023-12-07T04:49:25;29.70;;;14.30;;
22973;SDS011;11653;50.848;4.584;2023-12-07T04:51:51;26.77;;;15.10;;
22973;SDS011;11653;50.848;4.584;2023-12-07T04:54:17;29.00;;;15.03;;
22973;SDS011;11653;50.848;4.584;2023-12-07T04:56:43;27.23;;;13.27;;
22973;SDS011;11653;50.848;4.584;2023-12-07T04:59:09;26.93;;;14.37;;
22973;SDS011;11653;50.848;4.584;2023-12-07T05:01:38;25.47;;;12.60;;
22973;SDS011;11653;50.848;4.584;2023-12-07T05:04:04;26.67;;;13.77;;
22973;SDS011;11653;50.848;4.584;2023-12-07T05:06:31;24.43;;;13.67;;
22973;SDS011;11653;50.848;4.584;2023-12-07T05:08:56;26.23;;;13.90;;
22973;SDS011;11653;50.848;4.584;2023-12-07T05:11:23;21.37;;;13.20;;
22973;SDS011;11653;50.848;4.584;2023-12-07T05:13:48;22.93;;;13.07;;
22973;SDS011;11653;50.848;4.584;2023-12-07T05:16:14;25.90;;;14.50;;
22973;SDS011;11653;50.848;4.584;2023-12-07T05:18:40;26.37;;;14.03;;
22973;SDS011;11653;50.848;4.584;2023-12-07T05:21:06;26.10;;;14.27;;
22973;SDS011;11653;50.848;4.584;2023-12-07T05:23:32;29.23;;;15.63;;
22973;SDS011;11653;50.848;4.584;2023-12-07T05:25:58;33.43;;;16.00;;
22973;SDS011;11653;50.848;4.584;2023-12-07T05:28:25;28.77;;;16.50;;
22973;SDS011;11653;50.848;4.584;2023-12-07T05:30:51;28.60;;;17.63;;
22973;SDS011;11653;50.848;4.584;2023-12-07T05:33:18;29.07;;;16.43;;
22973;SDS011;11653;50.848;4.584;2023-12-07T05:35:44;33.33;;;19.43;;
22973;SDS011;11653;50.848;4.584;2023-12-07T05:38:10;36.37;;;16.20;;
22973;SDS011;11653;50.848;4.584;2023-12-07T05:40:36;34.13;;;17.17;;
22973;SDS011;11653;50.848;4.584;2023-12-07T05:43:02;29.40;;;15.13;;
22973;SDS011;11653;50.848;4.584;2023-12-07T05:45:28;32.87;;;15.60;;
22973;SDS011;11653;50.848;4.584;2023-12-07T05:47:54;29.33;;;15.67;;
22973;SDS011;11653;50.848;4.584;2023-12-07T05:50:20;29.83;;;15.83;;
22973;SDS011;11653;50.848;4.584;2023-12-07T05:52:46;26.63;;;15.53;;
22973;SDS011;11653;50.848;4.584;2023-12-07T05:55:12;25.67;;;15.07;;
22973;SDS011;11653;50.848;4.584;2023-12-07T05:57:38;29.20;;;15.13;;
22973;SDS011;11653;50.848;4.584;2023-12-07T06:00:04;27.53;;;13.37;;
22973;SDS011;11653;50.848;4.584;2023-12-07T06:02:34;29.17;;;14.70;;
22973;SDS011;11653;50.848;4.584;2023-12-07T06:05:00;29.00;;;13.67;;
22973;SDS011;11653;50.848;4.584;2023-12-07T06:07:29;26.63;;;15.00;;
22973;SDS011;11653;50.848;4.584;2023-12-07T06:09:54;23.40;;;13.67;;
22973;SDS011;11653;50.848;4.584;2023-12-07T06:12:20;24.03;;;13.60;;
22973;SDS011;11653;50.848;4.584;2023-12-07T06:14:47;27.20;;;14.37;;
22973;SDS011;11653;50.848;4.584;2023-12-07T06:17:13;27.03;;;14.97;;
22973;SDS011;11653;50.848;4.584;2023-12-07T06:19:38;22.37;;;13.80;;
22973;SDS011;11653;50.848;4.584;2023-12-07T06:22:04;31.70;;;15.23;;
22973;SDS011;11653;50.848;4.584;2023-12-07T06:24:31;27.30;;;14.33;;
22973;SDS011;11653;50.848;4.584;2023-12-07T06:26:57;24.57;;;13.10;;
22973;SDS011;11653;50.848;4.584;2023-12-07T06:29:23;25.03;;;13.90;;
22973;SDS011;11653;50.848;4.584;2023-12-07T06:31:49;26.30;;;14.43;;
22973;SDS011;11653;50.848;4.584;2023-12-07T06:34:14;28.37;;;14.73;;
22973;SDS011;11653;50.848;4.584;2023-12-07T06:36:41;21.77;;;13.53;;
22973;SDS011;11653;50.848;4.584;2023-12-07T06:39:06;27.00;;;14.33;;
22973;SDS011;11653;50.848;4.584;2023-12-07T06:41:32;24.17;;;13.43;;
22973;SDS011;11653;50.848;4.584;2023-12-07T06:43:58;23.40;;;13.70;;
22973;SDS011;11653;50.848;4.584;2023-12-07T06:46:24;26.63;;;15.40;;
22973;SDS011;11653;50.848;4.584;2023-12-07T06:48:49;26.43;;;14.03;;
22973;SDS011;11653;50.848;4.584;2023-12-07T06:51:15;30.03;;;15.57;;
22973;SDS011;11653;50.848;4.584;2023-12-07T06:53:41;32.37;;;17.30;;
22973;SDS011;11653;50.848;4.584;2023-12-07T06:56:09;25.77;;;16.33;;
22973;SDS011;11653;50.848;4.584;2023-12-07T06:58:35;29.83;;;13.80;;
22973;SDS011;11653;50.848;4.584;2023-12-07T07:01:01;24.97;;;14.33;;
22973;SDS011;11653;50.848;4.584;2023-12-07T07:03:27;24.40;;;14.83;;
22973;SDS011;11653;50.848;4.584;2023-12-07T07:05:53;26.03;;;14.00;;
22973;SDS011;11653;50.848;4.584;2023-12-07T07:08:19;23.90;;;13.90;;
22973;SDS011;11653;50.848;4.584;2023-12-07T07:10:45;25.17;;;12.80;;
22973;SDS011;11653;50.848;4.584;2023-12-07T07:13:12;24.23;;;13.50;;
22973;SDS011;11653;50.848;4.584;2023-12-07T07:15:41;28.83;;;14.87;;
22973;SDS011;11653;50.848;4.584;2023-12-07T07:18:07;27.87;;;14.20;;
22973;SDS011;11653;50.848;4.584;2023-12-07T07:20:33;25.23;;;13.93;;
22973;SDS011;11653;50.848;4.584;2023-12-07T07:22:59;27.33;;;14.60;;
22973;SDS011;11653;50.848;4.584;2023-12-07T07:25:25;26.50;;;13.30;;
22973;SDS011;11653;50.848;4.584;2023-12-07T07:27:51;28.03;;;13.60;;
22973;SDS011;11653;50.848;4.584;2023-12-07T07:30:17;24.63;;;12.17;;
22973;SDS011;11653;50.848;4.584;2023-12-07T07:32:43;25.87;;;14.20;;
22973;SDS011;11653;50.848;4.584;2023-12-07T07:35:09;25.83;;;13.17;;
22973;SDS011;11653;50.848;4.584;2023-12-07T07:37:36;24.43;;;13.00;;
22973;SDS011;11653;50.848;4.584;2023-12-07T07:40:06;24.67;;;12.83;;
22973;SDS011;11653;50.848;4.584;2023-12-07T07:42:36;28.07;;;13.13;;
22973;SDS011;11653;50.848;4.584;2023-12-07T07:45:05;27.87;;;13.03;;
22973;SDS011;11653;50.848;4.584;2023-12-07T07:47:34;24.77;;;12.63;;
22973;SDS011;11653;50.848;4.584;2023-12-07T07:50:00;27.63;;;13.90;;
22973;SDS011;11653;50.848;4.584;2023-12-07T07:52:30;23.47;;;13.33;;
22973;SDS011;11653;50.848;4.584;2023-12-07T07:54:57;25.30;;;13.53;;
22973;SDS011;11653;50.848;4.584;2023-12-07T07:57:23;24.37;;;13.57;;
22973;SDS011;11653;50.848;4.584;2023-12-07T07:59:48;29.83;;;15.33;;
22973;SDS011;11653;50.848;4.584;2023-12-07T08:02:14;24.40;;;12.53;;
22973;SDS011;11653;50.848;4.584;2023-12-07T08:04:40;23.80;;;12.93;;
22973;SDS011;11653;50.848;4.584;2023-12-07T08:07:06;23.17;;;13.67;;
22973;SDS011;11653;50.848;4.584;2023-12-07T08:09:32;22.60;;;13.00;;
22973;SDS011;11653;50.848;4.584;2023-12-07T08:11:58;28.27;;;16.13;;
22973;SDS011;11653;50.848;4.584;2023-12-07T08:14:24;32.63;;;16.63;;
22973;SDS011;11653;50.848;4.584;2023-12-07T08:16:49;29.30;;;15.17;;
22973;SDS011;11653;50.848;4.584;2023-12-07T08:19:15;27.30;;;14.60;;
22973;SDS011;11653;50.848;4.584;2023-12-07T08:21:41;27.40;;;15.13;;
22973;SDS011;11653;50.848;4.584;2023-12-07T08:24:06;29.53;;;15.23;;
22973;SDS011;11653;50.848;4.584;2023-12-07T08:26:32;28.20;;;14.53;;
22973;SDS011;11653;50.848;4.584;2023-12-07T08:28:57;27.47;;;13.53;;
22973;SDS011;11653;50.848;4.584;2023-12-07T08:31:24;25.80;;;13.50;;
22973;SDS011;11653;50.848;4.584;2023-12-07T08:33:50;26.17;;;13.97;;
22973;SDS011;11653;50.848;4.584;2023-12-07T08:36:16;25.30;;;14.03;;
22973;SDS011;11653;50.848;4.584;2023-12-07T08:38:42;24.03;;;14.23;;
22973;SDS011;11653;50.848;4.584;2023-12-07T08:41:08;26.90;;;14.47;;
22973;SDS011;11653;50.848;4.584;2023-12-07T08:43:33;26.53;;;15.03;;
22973;SDS011;11653;50.848;4.584;2023-12-07T08:45:59;24.07;;;14.23;;
22973;SDS011;11653;50.848;4.584;2023-12-07T08:48:25;26.63;;;13.23;;
22973;SDS011;11653;50.848;4.584;2023-12-07T08:50:50;29.43;;;15.10;;
22973;SDS011;11653;50.848;4.584;2023-12-07T08:53:16;27.37;;;13.33;;
22973;SDS011;11653;50.848;4.584;2023-12-07T08:55:42;24.30;;;13.43;;
22973;SDS011;11653;50.848;4.584;2023-12-07T08:58:08;29.63;;;13.80;;
22973;SDS011;11653;50.848;4.584;2023-12-07T09:00:35;23.17;;;12.40;;
22973;SDS011;11653;50.848;4.584;2023-12-07T09:03:01;29.57;;;12.30;;
22973;SDS011;11653;50.848;4.584;2023-12-07T09:05:27;25.77;;;13.67;;
22973;SDS011;11653;50.848;4.584;2023-12-07T09:07:52;21.67;;;11.80;;
22973;SDS011;11653;50.848;4.584;2023-12-07T09:10:18;20.50;;;12.00;;
22973;SDS011;11653;50.848;4.584;2023-12-07T09:12:45;31.10;;;17.67;;
22973;SDS011;11653;50.848;4.584;2023-12-07T09:15:10;19.03;;;11.63;;
22973;SDS011;11653;50.848;4.584;2023-12-07T09:17:37;24.10;;;11.90;;
22973;SDS011;11653;50.848;4.584;2023-12-07T09:20:04;21.20;;;11.70;;
22973;SDS011;11653;50.848;4.584;2023-12-07T09:22:43;18.63;;;10.30;;
22973;SDS011;11653;50.848;4.584;2023-12-07T09:25:10;16.07;;;10.50;;
22973;SDS011;11653;50.848;4.584;2023-12-07T09:27:36;18.30;;;10.67;;
22973;SDS011;11653;50.848;4.584;2023-12-07T09:30:11;19.37;;;11.20;;
22973;SDS011;11653;50.848;4.584;2023-12-07T09:32:40;19.63;;;11.20;;
22973;SDS011;11653;50.848;4.584;2023-12-07T09:35:08;17.33;;;10.20;;
22973;SDS011;11653;50.848;4.584;2023-12-07T09:37:44;17.00;;;11.10;;
22973;SDS011;11653;50.848;4.584;2023-12-07T09:40:20;20.27;;;11.00;;
22973;SDS011;11653;50.848;4.584;2023-12-07T09:42:48;14.60;;;10.03;;
22973;SDS011;11653;50.848;4.584;2023-12-07T09:45:14;18.67;;;9.83;;
22973;SDS011;11653;50.848;4.584;2023-12-07T09:48:02;17.17;;;10.07;;
22973;SDS011;11653;50.848;4.584;2023-12-07T09:50:29;19.53;;;9.83;;
22973;SDS011;11653;50.848;4.584;2023-12-07T09:52:56;17.63;;;10.07;;
22973;SDS011;11653;50.848;4.584;2023-12-07T09:55:23;16.67;;;9.70;;
22973;SDS011;11653;50.848;4.584;2023-12-07T09:57:50;17.60;;;9.20;;
22973;SDS011;11653;50.848;4.584;2023-12-07T10:00:16;17.67;;;8.47;;
22973;SDS011;11653;50.848;4.584;2023-12-07T10:02:43;16.73;;;9.60;;
22973;SDS011;11653;50.848;4.584;2023-12-07T10:05:10;18.63;;;9.33;;
22973;SDS011;11653;50.848;4.584;2023-12-07T10:07:48;14.53;;;8.57;;
22973;SDS011;11653;50.848;4.584;2023-12-07T10:10:15;21.03;;;8.80;;
22973;SDS011;11653;50.848;4.584;2023-12-07T10:13:00;16.43;;;8.90;;
22973;SDS011;11653;50.848;4.584;2023-12-07T10:15:26;14.07;;;8.20;;
22973;SDS011;11653;50.848;4.584;2023-12-07T10:17:54;13.60;;;7.50;;
22973;SDS011;11653;50.848;4.584;2023-12-07T10:20:25;11.27;;;6.70;;
22973;SDS011;11653;50.848;4.584;2023-12-07T10:23:05;14.10;;;7.57;;
22973;SDS011;11653;50.848;4.584;2023-12-07T10:25:36;13.13;;;7.40;;
22973;SDS011;11653;50.848;4.584;2023-12-07T10:28:09;12.97;;;7.53;;
22973;SDS011;11653;50.848;4.584;2023-12-07T10:30:37;11.33;;;7.33;;
22973;SDS011;11653;50.848;4.584;2023-12-07T10:33:05;13.40;;;7.47;;
22973;SDS011;11653;50.848;4.584;2023-12-07T10:35:32;14.93;;;7.30;;
22973;SDS011;11653;50.848;4.584;2023-12-07T10:37:58;13.50;;;7.37;;
22973;SDS011;11653;50.848;4.584;2023-12-07T10:40:24;11.53;;;6.53;;
22973;SDS011;11653;50.848;4.584;2023-12-07T10:42:51;12.47;;;7.60;;
22973;SDS011;11653;50.848;4.584;2023-12-07T10:45:22;12.97;;;6.93;;
22973;SDS011;11653;50.848;4.584;2023-12-07T10:47:50;9.17;;;6.53;;
22973;SDS011;11653;50.848;4.584;2023-12-07T10:50:20;11.17;;;7.17;;
22973;SDS011;11653;50.848;4.584;2023-12-07T10:52:51;10.37;;;6.63;;
22973;SDS011;11653;50.848;4.584;2023-12-07T10:55:21;13.43;;;7.27;;
22973;SDS011;11653;50.848;4.584;2023-12-07T10:57:55;14.57;;;7.00;;
22973;SDS011;11653;50.848;4.584;2023-12-07T11:00:21;10.83;;;6.20;;
22973;SDS011;11653;50.848;4.584;2023-12-07T11:02:52;11.40;;;7.07;;
22973;SDS011;11653;50.848;4.584;2023-12-07T11:05:18;13.27;;;6.63;;
22973;SDS011;11653;50.848;4.584;2023-12-07T11:10:25;16.30;;;7.40;;
22973;SDS011;11653;50.848;4.584;2023-12-07T11:13:18;11.60;;;7.37;;
22973;SDS011;11653;50.848;4.584;2023-12-07T11:15:48;15.77;;;7.47;;
22973;SDS011;11653;50.848;4.584;2023-12-07T11:18:14;18.70;;;7.47;;
22973;SDS011;11653;50.848;4.584;2023-12-07T11:20:41;15.70;;;6.80;;
22973;SDS011;11653;50.848;4.584;2023-12-07T11:23:09;13.50;;;7.90;;
22973;SDS011;11653;50.848;4.584;2023-12-07T11:25:35;11.27;;;7.07;;
22973;SDS011;11653;50.848;4.584;2023-12-07T11:28:02;12.63;;;7.10;;
22973;SDS011;11653;50.848;4.584;2023-12-07T11:30:35;10.73;;;6.40;;
22973;SDS011;11653;50.848;4.584;2023-12-07T11:33:04;14.23;;;7.10;;
22973;SDS011;11653;50.848;4.584;2023-12-07T11:35:31;13.93;;;7.17;;
22973;SDS011;11653;50.848;4.584;2023-12-07T11:40:29;14.30;;;6.63;;
22973;SDS011;11653;50.848;4.584;2023-12-07T11:42:55;13.80;;;7.00;;
22973;SDS011;11653;50.848;4.584;2023-12-07T11:48:26;11.90;;;6.53;;
22973;SDS011;11653;50.848;4.584;2023-12-07T11:50:59;12.53;;;7.20;;
22973;SDS011;11653;50.848;4.584;2023-12-07T11:53:36;11.20;;;6.63;;
22973;SDS011;11653;50.848;4.584;2023-12-07T11:56:06;12.73;;;7.13;;
22973;SDS011;11653;50.848;4.584;2023-12-07T11:58:33;9.97;;;6.30;;
22973;SDS011;11653;50.848;4.584;2023-12-07T12:01:00;12.63;;;7.33;;
22973;SDS011;11653;50.848;4.584;2023-12-07T12:03:27;11.60;;;7.03;;
22973;SDS011;11653;50.848;4.584;2023-12-07T12:05:54;14.63;;;7.70;;
22973;SDS011;11653;50.848;4.584;2023-12-07T12:08:20;16.60;;;6.97;;
22973;SDS011;11653;50.848;4.584;2023-12-07T12:10:47;14.83;;;7.37;;
22973;SDS011;11653;50.848;4.584;2023-12-07T12:13:15;14.90;;;7.43;;
22973;SDS011;11653;50.848;4.584;2023-12-07T12:15:41;16.27;;;8.23;;
22973;SDS011;11653;50.848;4.584;2023-12-07T12:18:07;12.13;;;8.57;;
22973;SDS011;11653;50.848;4.584;2023-12-07T12:20:34;12.13;;;7.80;;
22973;SDS011;11653;50.848;4.584;2023-12-07T12:23:00;13.17;;;6.77;;
22973;SDS011;11653;50.848;4.584;2023-12-07T12:25:27;13.90;;;7.37;;
22973;SDS011;11653;50.848;4.584;2023-12-07T12:27:55;16.53;;;7.27;;
22973;SDS011;11653;50.848;4.584;2023-12-07T12:30:31;14.87;;;7.57;;
22973;SDS011;11653;50.848;4.584;2023-12-07T12:32:57;15.80;;;7.57;;
22973;SDS011;11653;50.848;4.584;2023-12-07T12:35:25;15.27;;;7.83;;
22973;SDS011;11653;50.848;4.584;2023-12-07T12:37:50;11.87;;;7.23;;
22973;SDS011;11653;50.848;4.584;2023-12-07T12:40:17;11.33;;;7.13;;
22973;SDS011;11653;50.848;4.584;2023-12-07T12:42:48;17.20;;;7.60;;
22973;SDS011;11653;50.848;4.584;2023-12-07T12:45:15;15.20;;;7.90;;
22973;SDS011;11653;50.848;4.584;2023-12-07T12:47:42;13.50;;;6.90;;
22973;SDS011;11653;50.848;4.584;2023-12-07T12:50:11;15.07;;;7.10;;
22973;SDS011;11653;50.848;4.584;2023-12-07T12:52:41;13.07;;;6.47;;
22973;SDS011;11653;50.848;4.584;2023-12-07T12:55:10;16.00;;;7.30;;
22973;SDS011;11653;50.848;4.584;2023-12-07T12:57:36;8.17;;;5.50;;
22973;SDS011;11653;50.848;4.584;2023-12-07T13:00:03;11.37;;;5.93;;
22973;SDS011;11653;50.848;4.584;2023-12-07T13:02:31;12.70;;;5.13;;
22973;SDS011;11653;50.848;4.584;2023-12-07T13:04:57;6.97;;;4.93;;
22973;SDS011;11653;50.848;4.584;2023-12-07T13:07:23;11.73;;;6.00;;
22973;SDS011;11653;50.848;4.584;2023-12-07T13:09:51;14.43;;;6.30;;
22973;SDS011;11653;50.848;4.584;2023-12-07T13:12:17;15.20;;;6.50;;
22973;SDS011;11653;50.848;4.584;2023-12-07T13:14:43;7.70;;;6.20;;
22973;SDS011;11653;50.848;4.584;2023-12-07T13:17:09;14.07;;;7.53;;
22973;SDS011;11653;50.848;4.584;2023-12-07T13:19:34;9.93;;;5.90;;
22973;SDS011;11653;50.848;4.584;2023-12-07T13:22:00;8.97;;;5.97;;
22973;SDS011;11653;50.848;4.584;2023-12-07T13:24:26;14.87;;;6.53;;
22973;SDS011;11653;50.848;4.584;2023-12-07T13:26:52;11.10;;;6.60;;
22973;SDS011;11653;50.848;4.584;2023-12-07T13:29:18;11.17;;;6.60;;
22973;SDS011;11653;50.848;4.584;2023-12-07T13:31:43;15.43;;;6.77;;
22973;SDS011;11653;50.848;4.584;2023-12-07T13:34:10;14.70;;;8.70;;
22973;SDS011;11653;50.848;4.584;2023-12-07T13:36:36;12.17;;;6.93;;
22973;SDS011;11653;50.848;4.584;2023-12-07T13:39:02;17.83;;;7.97;;
22973;SDS011;11653;50.848;4.584;2023-12-07T13:41:28;12.20;;;6.73;;
22973;SDS011;11653;50.848;4.584;2023-12-07T13:43:53;12.50;;;7.50;;
22973;SDS011;11653;50.848;4.584;2023-12-07T13:46:19;17.93;;;6.40;;
22973;SDS011;11653;50.848;4.584;2023-12-07T13:48:45;17.17;;;6.57;;
22973;SDS011;11653;50.848;4.584;2023-12-07T13:51:11;13.37;;;6.13;;
22973;SDS011;11653;50.848;4.584;2023-12-07T13:53:37;12.07;;;6.50;;
22973;SDS011;11653;50.848;4.584;2023-12-07T13:56:03;16.70;;;6.77;;
22973;SDS011;11653;50.848;4.584;2023-12-07T13:58:30;13.07;;;7.57;;
22973;SDS011;11653;50.848;4.584;2023-12-07T14:00:56;11.77;;;5.40;;
22973;SDS011;11653;50.848;4.584;2023-12-07T14:03:22;12.10;;;6.73;;
22973;SDS011;11653;50.848;4.584;2023-12-07T14:05:48;11.23;;;6.90;;
22973;SDS011;11653;50.848;4.584;2023-12-07T14:08:14;19.43;;;9.20;;
22973;SDS011;11653;50.848;4.584;2023-12-07T14:10:40;30.07;;;11.43;;
22973;SDS011;11653;50.848;4.584;2023-12-07T14:13:06;27.03;;;11.40;;
22973;SDS011;11653;50.848;4.584;2023-12-07T14:15:31;24.03;;;10.60;;
22973;SDS011;11653;50.848;4.584;2023-12-07T14:18:00;22.93;;;9.03;;
22973;SDS011;11653;50.848;4.584;2023-12-07T14:20:27;24.03;;;9.93;;
22973;SDS011;11653;50.848;4.584;2023-12-07T14:22:56;21.67;;;9.87;;
22973;SDS011;11653;50.848;4.584;2023-12-07T14:25:23;27.43;;;12.27;;
22973;SDS011;11653;50.848;4.584;2023-12-07T14:27:49;21.53;;;9.67;;
22973;SDS011;11653;50.848;4.584;2023-12-07T14:30:14;25.60;;;10.33;;
22973;SDS011;11653;50.848;4.584;2023-12-07T14:32:42;22.10;;;10.40;;
22973;SDS011;11653;50.848;4.584;2023-12-07T14:35:13;10.70;;;6.67;;